»·PEaware :: N245LG KLGB-L70

N245LG :: KLGB-L70

FLIGHT INFORMATION

Flight Status: Arrived
Operator: Privately registered:
United States
More flights under this callsign
Pilot: Erik A. (17503)
Aircraft: CESSNA 172 SKYHAWK
(C172)
More flights by this aircraft type
Origin: KLGB Long Beach
United States
Destination: L70 Agua Dulce
United States
More flights between these airports :: More routes between these airports
Route: KLAX SMO VNY
File this flight plan on PilotEdge
Remarks: LAX SFRA
Altitude:
(Current/Filed)
4,500ft
Speed:
(Current/Filed)
100kts
Departed: 04-Jan-18 01:13 PM
Arrived: 04-Jan-18 01:53 PM
Distance/Time
Traveled:
42nm/0:40
Distance/Time
To Go:
Arrived

Flight Plot

Page will automatically refresh every two minutes.

Flight plan parsing failed; only flown route is shown


Map Options




Map Legend


Flown Route
Filed Route
Departure Airport
Arrival Airport
Navaid (VOR, NDB)
Fix

Horizontal Profiles

Position Reports

Time Latitude Longitude Heading Altitude Ground
Speed
04-Jan-18 12:47 33.812827 -118.162076 177 63ft 0kts
04-Jan-18 12:48 33.812827 -118.162076 177 63ft 0kts
04-Jan-18 12:49 33.812827 -118.162076 177 63ft 0kts
04-Jan-18 12:50 33.812827 -118.162076 177 63ft 0kts
04-Jan-18 12:51 33.812827 -118.162076 177 63ft 0kts
04-Jan-18 12:52 33.812827 -118.162076 177 63ft 0kts
04-Jan-18 12:53 33.812827 -118.162076 177 63ft 0kts
04-Jan-18 12:54 33.812826 -118.162076 177 63ft 0kts
04-Jan-18 12:55 33.812823 -118.162076 177 63ft 0kts
04-Jan-18 12:56 33.812820 -118.162076 177 63ft 0kts
04-Jan-18 12:57 33.812818 -118.162076 177 63ft 0kts
04-Jan-18 12:58 33.812815 -118.162076 177 63ft 0kts
04-Jan-18 12:59 33.812813 -118.162076 177 63ft 0kts
04-Jan-18 13:00 33.812810 -118.162076 177 63ft 0kts
04-Jan-18 13:01 33.812808 -118.162076 177 63ft 0kts
04-Jan-18 13:02 33.812805 -118.162076 177 63ft 0kts
04-Jan-18 13:03 33.812803 -118.162076 177 63ft 0kts
04-Jan-18 13:04 33.812800 -118.162075 177 63ft 0kts
04-Jan-18 13:05 33.812798 -118.162075 177 63ft 0kts
04-Jan-18 13:06 33.812795 -118.162075 177 63ft 0kts
04-Jan-18 13:07 33.812792 -118.162075 177 63ft 0kts
04-Jan-18 13:08 33.812790 -118.162075 177 63ft 0kts
04-Jan-18 13:09 33.812787 -118.162075 177 63ft 0kts
04-Jan-18 13:10 33.813022 -118.162030 100 63ft 6kts
04-Jan-18 13:11 33.813030 -118.158416 89 63ft 13kts
04-Jan-18 13:12 33.813021 -118.154668 90 63ft 11kts
04-Jan-18 13:13 33.813047 -118.150026 90 63ft 15kts
04-Jan-18 13:14 33.811943 -118.145994 132 63ft 12kts
04-Jan-18 13:15 33.812619 -118.143378 330 63ft 11kts
04-Jan-18 13:16 33.813276 -118.144105 318 63ft 0kts
04-Jan-18 13:17 33.813280 -118.144110 318 63ft 0kts
04-Jan-18 13:18 33.813284 -118.144113 318 63ft 0kts
04-Jan-18 13:19 33.813838 -118.146719 270 63ft 46kts
04-Jan-18 13:20 33.815307 -118.169926 277 623ft 75kts
04-Jan-18 13:21 33.818519 -118.194483 277 1322ft 75kts
04-Jan-18 13:22 33.802091 -118.208219 209 1934ft 81kts
04-Jan-18 13:23 33.778153 -118.215241 190 2431ft 95kts
04-Jan-18 13:24 33.748928 -118.220669 193 2918ft 113kts
04-Jan-18 13:25 33.720241 -118.225979 197 3505ft 96kts
04-Jan-18 13:26 33.695878 -118.235467 153 3988ft 101kts
04-Jan-18 13:27 33.707668 -118.221765 330 4291ft 102kts
04-Jan-18 13:28 33.732841 -118.239057 327 4427ft 106kts
04-Jan-18 13:29 33.758540 -118.255915 324 4464ft 104kts
04-Jan-18 13:30 33.783935 -118.272947 323 4463ft 106kts
04-Jan-18 13:31 33.808106 -118.293042 320 4470ft 105kts
04-Jan-18 13:32 33.832125 -118.312027 322 4389ft 95kts
04-Jan-18 13:33 33.856743 -118.328470 320 4636ft 111kts
04-Jan-18 13:34 33.880106 -118.352697 317 4591ft 112kts
04-Jan-18 13:35 33.907163 -118.370975 328 4523ft 113kts
04-Jan-18 13:36 33.934941 -118.387803 329 4401ft 110kts
04-Jan-18 13:37 33.960031 -118.408628 322 4306ft 108kts
04-Jan-18 13:38 33.982435 -118.431643 319 4467ft 107kts
04-Jan-18 13:39 34.007476 -118.450575 329 4262ft 103kts
04-Jan-18 13:40 34.032843 -118.462078 348 4326ft 99kts
04-Jan-18 13:41 34.061194 -118.464163 357 4244ft 102kts
04-Jan-18 13:42 34.090143 -118.465110 359 4644ft 108kts
04-Jan-18 13:43 34.120695 -118.462020 0 4550ft 108kts
04-Jan-18 13:44 34.152192 -118.461500 359 4650ft 118kts
04-Jan-18 13:45 34.184828 -118.462628 353 4695ft 118kts
04-Jan-18 13:46 34.217236 -118.464025 353 4324ft 116kts
04-Jan-18 13:47 34.249614 -118.467219 347 4430ft 116kts
04-Jan-18 13:48 34.279867 -118.472189 345 4413ft 106kts
04-Jan-18 13:49 34.309291 -118.479965 343 4758ft 110kts
04-Jan-18 13:50 34.340817 -118.481831 9 4953ft 119kts
04-Jan-18 13:51 34.372120 -118.470134 26 4523ft 123kts
04-Jan-18 13:52 34.398190 -118.448228 38 3815ft 117kts
04-Jan-18 13:53 34.419873 -118.422095 42 3976ft 105kts
04-Jan-18 13:54 34.440283 -118.396974 41 4223ft 105kts
04-Jan-18 13:55 34.463409 -118.373583 37 4727ft 113kts
04-Jan-18 13:56 34.488324 -118.347808 50 4101ft 118kts
04-Jan-18 13:57 34.508528 -118.318705 49 3197ft 102kts
04-Jan-18 13:58 34.505497 -118.309954 231 2629ft 68kts
04-Jan-18 13:59 34.503050 -118.314760 47 2605ft 5kts
04-Jan-18 14:00 34.503471 -118.314281 226 2605ft 2kts
04-Jan-18 14:01 34.503469 -118.314284 225 2605ft 0kts
04-Jan-18 14:02 34.503469 -118.314284 225 2605ft 0kts
04-Jan-18 14:03 34.503469 -118.314284 225 2605ft 0kts
04-Jan-18 14:04 34.503467 -118.314286 225 2605ft 0kts
04-Jan-18 14:05 34.503466 -118.314288 225 2605ft 0kts
04-Jan-18 14:06 34.503464 -118.314290 225 2605ft 0kts
04-Jan-18 14:07 34.503462 -118.314293 225 2605ft 0kts
04-Jan-18 14:08 34.503460 -118.314295 225 2605ft 0kts
04-Jan-18 14:09 34.503458 -118.314298 225 2605ft 0kts
04-Jan-18 14:10 34.503456 -118.314300 225 2605ft 0kts
04-Jan-18 14:11 34.503454 -118.314302 225 2605ft 0kts
04-Jan-18 14:12 34.503452 -118.314304 225 2605ft 0kts
04-Jan-18 14:13 34.503451 -118.314306 225 2605ft 0kts

Navigation Log

Ident Type
Flight plan parsing failed, navigation log unavailable